sensor_id;sensor_type;location;lat;lon;timestamp;P1;durP1;ratioP1;P2;durP2;ratioP2
3867;SDS011;1949;48.152;11.528;2024-01-06T00:01:17;9.30;;;5.70;;
3867;SDS011;1949;48.152;11.528;2024-01-06T00:03:43;10.37;;;5.37;;
3867;SDS011;1949;48.152;11.528;2024-01-06T00:06:13;8.30;;;5.33;;
3867;SDS011;1949;48.152;11.528;2024-01-06T00:08:39;8.83;;;4.83;;
3867;SDS011;1949;48.152;11.528;2024-01-06T00:11:07;5.60;;;4.10;;
3867;SDS011;1949;48.152;11.528;2024-01-06T00:13:33;7.03;;;4.03;;
3867;SDS011;1949;48.152;11.528;2024-01-06T00:18:33;27.30;;;11.27;;
3867;SDS011;1949;48.152;11.528;2024-01-06T00:20:59;18.03;;;6.00;;
3867;SDS011;1949;48.152;11.528;2024-01-06T00:23:27;23.00;;;8.17;;
3867;SDS011;1949;48.152;11.528;2024-01-06T00:25:54;8.10;;;4.67;;
3867;SDS011;1949;48.152;11.528;2024-01-06T00:28:20;12.00;;;6.10;;
3867;SDS011;1949;48.152;11.528;2024-01-06T00:30:45;11.13;;;5.87;;
3867;SDS011;1949;48.152;11.528;2024-01-06T00:33:11;6.87;;;4.97;;
3867;SDS011;1949;48.152;11.528;2024-01-06T00:35:38;7.37;;;4.23;;
3867;SDS011;1949;48.152;11.528;2024-01-06T00:38:05;5.50;;;4.03;;
3867;SDS011;1949;48.152;11.528;2024-01-06T00:40:32;7.73;;;5.30;;
3867;SDS011;1949;48.152;11.528;2024-01-06T00:42:58;8.50;;;4.87;;
3867;SDS011;1949;48.152;11.528;2024-01-06T00:45:24;8.10;;;4.80;;
3867;SDS011;1949;48.152;11.528;2024-01-06T00:47:50;6.43;;;4.37;;
3867;SDS011;1949;48.152;11.528;2024-01-06T00:50:16;13.80;;;5.20;;
3867;SDS011;1949;48.152;11.528;2024-01-06T00:52:44;6.30;;;4.40;;
3867;SDS011;1949;48.152;11.528;2024-01-06T00:55:11;6.97;;;4.10;;
3867;SDS011;1949;48.152;11.528;2024-01-06T00:57:37;6.00;;;4.10;;
3867;SDS011;1949;48.152;11.528;2024-01-06T01:00:06;9.60;;;4.33;;
3867;SDS011;1949;48.152;11.528;2024-01-06T01:02:32;6.87;;;4.50;;
3867;SDS011;1949;48.152;11.528;2024-01-06T01:04:58;9.47;;;4.80;;
3867;SDS011;1949;48.152;11.528;2024-01-06T01:07:26;7.37;;;4.27;;
3867;SDS011;1949;48.152;11.528;2024-01-06T01:09:54;5.90;;;4.00;;
3867;SDS011;1949;48.152;11.528;2024-01-06T01:12:21;8.63;;;4.40;;
3867;SDS011;1949;48.152;11.528;2024-01-06T01:14:50;7.00;;;4.73;;
3867;SDS011;1949;48.152;11.528;2024-01-06T01:17:19;5.23;;;3.60;;
3867;SDS011;1949;48.152;11.528;2024-01-06T01:19:46;7.77;;;3.77;;
3867;SDS011;1949;48.152;11.528;2024-01-06T01:24:40;5.43;;;3.43;;
3867;SDS011;1949;48.152;11.528;2024-01-06T01:27:07;6.60;;;3.60;;
3867;SDS011;1949;48.152;11.528;2024-01-06T01:29:32;5.43;;;3.67;;
3867;SDS011;1949;48.152;11.528;2024-01-06T01:31:58;6.73;;;3.77;;
3867;SDS011;1949;48.152;11.528;2024-01-06T01:34:24;5.57;;;3.40;;
3867;SDS011;1949;48.152;11.528;2024-01-06T01:36:50;4.03;;;3.00;;
3867;SDS011;1949;48.152;11.528;2024-01-06T01:39:15;5.77;;;2.93;;
3867;SDS011;1949;48.152;11.528;2024-01-06T01:41:42;6.70;;;3.00;;
3867;SDS011;1949;48.152;11.528;2024-01-06T01:44:07;4.13;;;2.93;;
3867;SDS011;1949;48.152;11.528;2024-01-06T01:46:34;5.43;;;2.77;;
3867;SDS011;1949;48.152;11.528;2024-01-06T01:49:00;4.10;;;2.83;;
3867;SDS011;1949;48.152;11.528;2024-01-06T01:51:29;4.90;;;3.40;;
3867;SDS011;1949;48.152;11.528;2024-01-06T01:53:59;4.63;;;3.40;;
3867;SDS011;1949;48.152;11.528;2024-01-06T01:56:31;4.70;;;3.00;;
3867;SDS011;1949;48.152;11.528;2024-01-06T01:59:01;5.87;;;3.40;;
3867;SDS011;1949;48.152;11.528;2024-01-06T02:01:36;8.00;;;4.10;;
3867;SDS011;1949;48.152;11.528;2024-01-06T02:04:03;7.50;;;3.87;;
3867;SDS011;1949;48.152;11.528;2024-01-06T02:06:30;6.40;;;3.93;;
3867;SDS011;1949;48.152;11.528;2024-01-06T02:08:56;5.03;;;3.57;;
3867;SDS011;1949;48.152;11.528;2024-01-06T02:11:23;7.37;;;4.03;;
3867;SDS011;1949;48.152;11.528;2024-01-06T02:13:49;5.37;;;3.27;;
3867;SDS011;1949;48.152;11.528;2024-01-06T02:16:15;4.70;;;3.00;;
3867;SDS011;1949;48.152;11.528;2024-01-06T02:18:42;4.70;;;3.30;;
3867;SDS011;1949;48.152;11.528;2024-01-06T02:21:08;6.00;;;3.60;;
3867;SDS011;1949;48.152;11.528;2024-01-06T02:23:36;8.53;;;3.60;;
3867;SDS011;1949;48.152;11.528;2024-01-06T02:26:02;6.30;;;3.43;;
3867;SDS011;1949;48.152;11.528;2024-01-06T02:28:29;8.00;;;3.83;;
3867;SDS011;1949;48.152;11.528;2024-01-06T02:30:55;5.20;;;3.43;;
3867;SDS011;1949;48.152;11.528;2024-01-06T02:33:20;7.23;;;3.63;;
3867;SDS011;1949;48.152;11.528;2024-01-06T02:35:48;6.57;;;3.97;;
3867;SDS011;1949;48.152;11.528;2024-01-06T02:38:14;5.50;;;4.00;;
3867;SDS011;1949;48.152;11.528;2024-01-06T02:40:40;8.60;;;4.60;;
3867;SDS011;1949;48.152;11.528;2024-01-06T02:43:07;10.20;;;4.97;;
3867;SDS011;1949;48.152;11.528;2024-01-06T02:45:34;6.50;;;4.40;;
3867;SDS011;1949;48.152;11.528;2024-01-06T02:48:00;8.50;;;5.03;;
3867;SDS011;1949;48.152;11.528;2024-01-06T02:50:28;6.23;;;4.60;;
3867;SDS011;1949;48.152;11.528;2024-01-06T02:52:53;10.03;;;4.80;;
3867;SDS011;1949;48.152;11.528;2024-01-06T02:55:19;9.30;;;4.63;;
3867;SDS011;1949;48.152;11.528;2024-01-06T02:57:45;7.00;;;4.30;;
3867;SDS011;1949;48.152;11.528;2024-01-06T03:00:10;6.93;;;4.37;;
3867;SDS011;1949;48.152;11.528;2024-01-06T03:02:39;7.33;;;4.50;;
3867;SDS011;1949;48.152;11.528;2024-01-06T03:05:07;5.83;;;3.70;;
3867;SDS011;1949;48.152;11.528;2024-01-06T03:07:34;6.87;;;3.87;;
3867;SDS011;1949;48.152;11.528;2024-01-06T03:09:59;6.80;;;3.83;;
3867;SDS011;1949;48.152;11.528;2024-01-06T03:12:29;5.60;;;3.70;;
3867;SDS011;1949;48.152;11.528;2024-01-06T03:14:55;4.07;;;2.90;;
3867;SDS011;1949;48.152;11.528;2024-01-06T03:17:21;6.20;;;3.60;;
3867;SDS011;1949;48.152;11.528;2024-01-06T03:19:48;6.33;;;3.80;;
3867;SDS011;1949;48.152;11.528;2024-01-06T03:22:15;4.67;;;3.23;;
3867;SDS011;1949;48.152;11.528;2024-01-06T03:24:41;6.20;;;4.30;;
3867;SDS011;1949;48.152;11.528;2024-01-06T03:27:07;6.03;;;3.43;;
3867;SDS011;1949;48.152;11.528;2024-01-06T03:29:34;4.80;;;3.43;;
3867;SDS011;1949;48.152;11.528;2024-01-06T03:31:59;5.87;;;3.40;;
3867;SDS011;1949;48.152;11.528;2024-01-06T03:34:25;4.60;;;3.00;;
3867;SDS011;1949;48.152;11.528;2024-01-06T03:36:51;6.53;;;3.20;;
3867;SDS011;1949;48.152;11.528;2024-01-06T03:39:17;4.03;;;3.10;;
3867;SDS011;1949;48.152;11.528;2024-01-06T03:41:44;4.47;;;3.17;;
3867;SDS011;1949;48.152;11.528;2024-01-06T03:44:10;4.83;;;3.27;;
3867;SDS011;1949;48.152;11.528;2024-01-06T03:46:37;5.03;;;3.07;;
3867;SDS011;1949;48.152;11.528;2024-01-06T03:49:03;3.60;;;2.60;;
3867;SDS011;1949;48.152;11.528;2024-01-06T03:51:29;3.90;;;3.13;;
3867;SDS011;1949;48.152;11.528;2024-01-06T03:53:54;5.50;;;3.17;;
3867;SDS011;1949;48.152;11.528;2024-01-06T03:56:20;3.50;;;2.40;;
3867;SDS011;1949;48.152;11.528;2024-01-06T03:58:46;4.20;;;2.90;;
3867;SDS011;1949;48.152;11.528;2024-01-06T04:01:13;3.30;;;2.47;;
3867;SDS011;1949;48.152;11.528;2024-01-06T04:03:40;3.23;;;2.00;;
3867;SDS011;1949;48.152;11.528;2024-01-06T04:06:06;4.33;;;2.00;;
3867;SDS011;1949;48.152;11.528;2024-01-06T04:08:31;2.00;;;1.80;;
3867;SDS011;1949;48.152;11.528;2024-01-06T04:10:57;4.40;;;2.50;;
3867;SDS011;1949;48.152;11.528;2024-01-06T04:13:23;2.20;;;1.80;;
3867;SDS011;1949;48.152;11.528;2024-01-06T04:15:50;3.23;;;2.50;;
3867;SDS011;1949;48.152;11.528;2024-01-06T04:18:16;2.70;;;1.90;;
3867;SDS011;1949;48.152;11.528;2024-01-06T04:20:42;1.77;;;1.57;;
3867;SDS011;1949;48.152;11.528;2024-01-06T04:23:08;3.20;;;1.90;;
3867;SDS011;1949;48.152;11.528;2024-01-06T04:25:33;1.80;;;1.50;;
3867;SDS011;1949;48.152;11.528;2024-01-06T04:27:59;1.27;;;1.10;;
3867;SDS011;1949;48.152;11.528;2024-01-06T04:30:25;2.20;;;1.37;;
3867;SDS011;1949;48.152;11.528;2024-01-06T04:32:52;1.30;;;1.07;;
3867;SDS011;1949;48.152;11.528;2024-01-06T04:35:19;1.40;;;1.20;;
3867;SDS011;1949;48.152;11.528;2024-01-06T04:37:46;1.27;;;0.97;;
3867;SDS011;1949;48.152;11.528;2024-01-06T04:40:12;2.97;;;1.90;;
3867;SDS011;1949;48.152;11.528;2024-01-06T04:42:38;1.73;;;1.47;;
3867;SDS011;1949;48.152;11.528;2024-01-06T04:45:04;1.40;;;1.07;;
3867;SDS011;1949;48.152;11.528;2024-01-06T04:47:31;2.83;;;1.60;;
3867;SDS011;1949;48.152;11.528;2024-01-06T04:50:01;1.13;;;1.03;;
3867;SDS011;1949;48.152;11.528;2024-01-06T04:52:27;2.47;;;1.00;;
3867;SDS011;1949;48.152;11.528;2024-01-06T04:54:52;3.00;;;1.93;;
3867;SDS011;1949;48.152;11.528;2024-01-06T04:57:19;2.43;;;1.40;;
3867;SDS011;1949;48.152;11.528;2024-01-06T04:59:45;6.00;;;3.20;;
3867;SDS011;1949;48.152;11.528;2024-01-06T05:02:11;1.70;;;0.97;;
3867;SDS011;1949;48.152;11.528;2024-01-06T05:04:37;1.73;;;1.20;;
3867;SDS011;1949;48.152;11.528;2024-01-06T05:07:02;3.77;;;1.90;;
3867;SDS011;1949;48.152;11.528;2024-01-06T05:09:28;1.70;;;1.23;;
3867;SDS011;1949;48.152;11.528;2024-01-06T05:11:54;2.70;;;0.97;;
3867;SDS011;1949;48.152;11.528;2024-01-06T05:14:20;2.30;;;1.33;;
3867;SDS011;1949;48.152;11.528;2024-01-06T05:16:46;2.30;;;1.10;;
3867;SDS011;1949;48.152;11.528;2024-01-06T05:19:11;3.10;;;1.70;;
3867;SDS011;1949;48.152;11.528;2024-01-06T05:21:50;1.10;;;1.00;;
3867;SDS011;1949;48.152;11.528;2024-01-06T05:24:16;2.40;;;1.00;;
3867;SDS011;1949;48.152;11.528;2024-01-06T05:26:42;1.37;;;0.97;;
3867;SDS011;1949;48.152;11.528;2024-01-06T05:29:08;3.00;;;1.17;;
3867;SDS011;1949;48.152;11.528;2024-01-06T05:31:33;1.43;;;1.03;;
3867;SDS011;1949;48.152;11.528;2024-01-06T05:33:59;1.00;;;0.90;;
3867;SDS011;1949;48.152;11.528;2024-01-06T05:36:25;1.53;;;1.20;;
3867;SDS011;1949;48.152;11.528;2024-01-06T05:38:50;3.90;;;1.93;;
3867;SDS011;1949;48.152;11.528;2024-01-06T05:41:18;1.57;;;1.00;;
3867;SDS011;1949;48.152;11.528;2024-01-06T05:43:46;1.67;;;0.93;;
3867;SDS011;1949;48.152;11.528;2024-01-06T05:46:15;3.17;;;1.57;;
3867;SDS011;1949;48.152;11.528;2024-01-06T05:48:49;2.50;;;1.57;;
3867;SDS011;1949;48.152;11.528;2024-01-06T05:51:15;1.20;;;1.03;;
3867;SDS011;1949;48.152;11.528;2024-01-06T05:53:41;1.77;;;1.13;;
3867;SDS011;1949;48.152;11.528;2024-01-06T05:56:09;3.93;;;1.87;;
3867;SDS011;1949;48.152;11.528;2024-01-06T05:58:35;3.77;;;2.50;;
3867;SDS011;1949;48.152;11.528;2024-01-06T06:01:01;2.90;;;1.90;;
3867;SDS011;1949;48.152;11.528;2024-01-06T06:03:26;2.47;;;1.40;;
3867;SDS011;1949;48.152;11.528;2024-01-06T06:05:52;3.07;;;1.97;;
3867;SDS011;1949;48.152;11.528;2024-01-06T06:08:18;8.20;;;2.53;;
3867;SDS011;1949;48.152;11.528;2024-01-06T06:10:44;6.97;;;3.70;;
3867;SDS011;1949;48.152;11.528;2024-01-06T06:13:26;6.30;;;3.17;;
3867;SDS011;1949;48.152;11.528;2024-01-06T06:15:56;3.53;;;1.97;;
3867;SDS011;1949;48.152;11.528;2024-01-06T06:18:26;2.47;;;1.70;;
3867;SDS011;1949;48.152;11.528;2024-01-06T06:20:51;6.20;;;3.47;;
3867;SDS011;1949;48.152;11.528;2024-01-06T06:23:17;2.93;;;2.10;;
3867;SDS011;1949;48.152;11.528;2024-01-06T06:25:43;1.90;;;1.10;;
3867;SDS011;1949;48.152;11.528;2024-01-06T06:28:10;2.00;;;1.57;;
3867;SDS011;1949;48.152;11.528;2024-01-06T06:30:35;2.00;;;1.30;;
3867;SDS011;1949;48.152;11.528;2024-01-06T06:33:02;1.90;;;1.37;;
3867;SDS011;1949;48.152;11.528;2024-01-06T06:35:28;4.13;;;2.30;;
3867;SDS011;1949;48.152;11.528;2024-01-06T06:37:54;2.57;;;1.67;;
3867;SDS011;1949;48.152;11.528;2024-01-06T06:40:19;3.07;;;1.70;;
3867;SDS011;1949;48.152;11.528;2024-01-06T06:42:46;1.97;;;1.10;;
3867;SDS011;1949;48.152;11.528;2024-01-06T06:45:12;4.83;;;2.13;;
3867;SDS011;1949;48.152;11.528;2024-01-06T06:47:39;3.40;;;1.87;;
3867;SDS011;1949;48.152;11.528;2024-01-06T06:50:05;3.10;;;2.07;;
3867;SDS011;1949;48.152;11.528;2024-01-06T06:52:31;5.27;;;2.50;;
3867;SDS011;1949;48.152;11.528;2024-01-06T06:54:57;2.67;;;1.70;;
3867;SDS011;1949;48.152;11.528;2024-01-06T06:57:23;2.77;;;1.40;;
3867;SDS011;1949;48.152;11.528;2024-01-06T06:59:49;3.53;;;1.93;;
3867;SDS011;1949;48.152;11.528;2024-01-06T07:02:15;7.80;;;2.13;;
3867;SDS011;1949;48.152;11.528;2024-01-06T07:04:41;2.57;;;1.47;;
3867;SDS011;1949;48.152;11.528;2024-01-06T07:07:06;3.90;;;1.60;;
3867;SDS011;1949;48.152;11.528;2024-01-06T07:09:32;4.50;;;1.87;;
3867;SDS011;1949;48.152;11.528;2024-01-06T07:11:59;1.90;;;1.40;;
3867;SDS011;1949;48.152;11.528;2024-01-06T07:14:24;6.70;;;2.53;;
3867;SDS011;1949;48.152;11.528;2024-01-06T07:16:50;7.27;;;3.20;;
3867;SDS011;1949;48.152;11.528;2024-01-06T07:19:16;5.57;;;2.47;;
3867;SDS011;1949;48.152;11.528;2024-01-06T07:21:43;1.90;;;1.30;;
3867;SDS011;1949;48.152;11.528;2024-01-06T07:24:09;3.00;;;1.70;;
3867;SDS011;1949;48.152;11.528;2024-01-06T07:26:44;4.30;;;2.33;;
3867;SDS011;1949;48.152;11.528;2024-01-06T07:29:11;4.60;;;2.27;;
3867;SDS011;1949;48.152;11.528;2024-01-06T07:31:37;6.17;;;2.40;;
3867;SDS011;1949;48.152;11.528;2024-01-06T07:36:31;8.33;;;2.50;;
3867;SDS011;1949;48.152;11.528;2024-01-06T07:38:57;4.93;;;2.20;;
3867;SDS011;1949;48.152;11.528;2024-01-06T07:41:23;9.30;;;3.77;;
3867;SDS011;1949;48.152;11.528;2024-01-06T07:43:49;3.87;;;2.20;;
3867;SDS011;1949;48.152;11.528;2024-01-06T07:46:16;4.93;;;2.93;;
3867;SDS011;1949;48.152;11.528;2024-01-06T07:48:49;6.30;;;3.10;;
3867;SDS011;1949;48.152;11.528;2024-01-06T07:51:22;7.20;;;3.30;;
3867;SDS011;1949;48.152;11.528;2024-01-06T07:53:48;6.57;;;3.93;;
3867;SDS011;1949;48.152;11.528;2024-01-06T07:56:14;5.93;;;3.20;;
3867;SDS011;1949;48.152;11.528;2024-01-06T07:58:39;11.87;;;2.90;;
3867;SDS011;1949;48.152;11.528;2024-01-06T08:01:12;4.80;;;1.73;;
3867;SDS011;1949;48.152;11.528;2024-01-06T08:03:39;8.17;;;3.40;;
3867;SDS011;1949;48.152;11.528;2024-01-06T08:06:06;6.43;;;2.40;;
3867;SDS011;1949;48.152;11.528;2024-01-06T08:08:34;9.17;;;3.37;;
3867;SDS011;1949;48.152;11.528;2024-01-06T08:11:02;7.77;;;2.87;;
3867;SDS011;1949;48.152;11.528;2024-01-06T08:13:28;6.17;;;2.50;;
3867;SDS011;1949;48.152;11.528;2024-01-06T08:15:54;7.07;;;3.17;;
3867;SDS011;1949;48.152;11.528;2024-01-06T08:18:20;9.00;;;4.37;;
3867;SDS011;1949;48.152;11.528;2024-01-06T08:20:46;7.80;;;3.17;;
3867;SDS011;1949;48.152;11.528;2024-01-06T08:23:13;15.97;;;3.27;;
3867;SDS011;1949;48.152;11.528;2024-01-06T08:25:39;3.20;;;2.40;;
3867;SDS011;1949;48.152;11.528;2024-01-06T08:28:05;6.70;;;2.43;;
3867;SDS011;1949;48.152;11.528;2024-01-06T08:30:31;6.50;;;3.20;;
3867;SDS011;1949;48.152;11.528;2024-01-06T08:32:57;3.07;;;2.13;;
3867;SDS011;1949;48.152;11.528;2024-01-06T08:35:24;3.00;;;2.03;;
3867;SDS011;1949;48.152;11.528;2024-01-06T08:37:50;6.37;;;2.30;;
3867;SDS011;1949;48.152;11.528;2024-01-06T08:40:16;1.97;;;1.10;;
3867;SDS011;1949;48.152;11.528;2024-01-06T08:42:42;5.70;;;2.70;;
3867;SDS011;1949;48.152;11.528;2024-01-06T08:45:09;2.80;;;1.80;;
3867;SDS011;1949;48.152;11.528;2024-01-06T08:47:34;3.33;;;1.50;;
3867;SDS011;1949;48.152;11.528;2024-01-06T08:50:02;2.57;;;1.30;;
3867;SDS011;1949;48.152;11.528;2024-01-06T08:52:34;2.83;;;1.50;;
3867;SDS011;1949;48.152;11.528;2024-01-06T08:55:00;7.93;;;1.37;;
3867;SDS011;1949;48.152;11.528;2024-01-06T08:57:25;3.63;;;1.60;;
3867;SDS011;1949;48.152;11.528;2024-01-06T08:59:52;4.23;;;1.73;;
3867;SDS011;1949;48.152;11.528;2024-01-06T09:02:18;6.13;;;2.00;;
3867;SDS011;1949;48.152;11.528;2024-01-06T09:04:43;5.20;;;2.20;;
3867;SDS011;1949;48.152;11.528;2024-01-06T09:07:10;3.47;;;1.60;;
3867;SDS011;1949;48.152;11.528;2024-01-06T09:09:36;7.10;;;3.37;;
3867;SDS011;1949;48.152;11.528;2024-01-06T09:12:02;10.00;;;3.40;;
3867;SDS011;1949;48.152;11.528;2024-01-06T09:14:28;7.13;;;2.23;;
3867;SDS011;1949;48.152;11.528;2024-01-06T09:17:01;9.73;;;3.87;;
3867;SDS011;1949;48.152;11.528;2024-01-06T09:19:27;8.07;;;3.80;;
3867;SDS011;1949;48.152;11.528;2024-01-06T09:21:54;8.10;;;2.97;;
3867;SDS011;1949;48.152;11.528;2024-01-06T09:24:28;5.40;;;2.60;;
3867;SDS011;1949;48.152;11.528;2024-01-06T09:26:57;7.60;;;3.10;;
3867;SDS011;1949;48.152;11.528;2024-01-06T09:29:23;9.50;;;2.53;;
3867;SDS011;1949;48.152;11.528;2024-01-06T09:31:49;8.87;;;3.87;;
3867;SDS011;1949;48.152;11.528;2024-01-06T09:34:15;7.23;;;2.07;;
3867;SDS011;1949;48.152;11.528;2024-01-06T09:36:41;5.70;;;2.10;;
3867;SDS011;1949;48.152;11.528;2024-01-06T09:39:06;6.33;;;2.83;;
3867;SDS011;1949;48.152;11.528;2024-01-06T09:41:33;16.13;;;2.60;;
3867;SDS011;1949;48.152;11.528;2024-01-06T09:43:59;3.80;;;1.43;;
3867;SDS011;1949;48.152;11.528;2024-01-06T09:46:25;4.00;;;1.70;;
3867;SDS011;1949;48.152;11.528;2024-01-06T09:48:55;6.57;;;1.50;;
3867;SDS011;1949;48.152;11.528;2024-01-06T09:51:22;2.03;;;1.80;;
3867;SDS011;1949;48.152;11.528;2024-01-06T09:56:28;2.40;;;1.67;;
3867;SDS011;1949;48.152;11.528;2024-01-06T09:58:54;8.27;;;2.13;;
3867;SDS011;1949;48.152;11.528;2024-01-06T10:01:21;1.83;;;1.40;;
3867;SDS011;1949;48.152;11.528;2024-01-06T10:03:47;4.70;;;1.40;;
3867;SDS011;1949;48.152;11.528;2024-01-06T10:06:13;3.63;;;1.77;;
3867;SDS011;1949;48.152;11.528;2024-01-06T10:08:43;6.40;;;2.60;;
3867;SDS011;1949;48.152;11.528;2024-01-06T10:11:12;4.90;;;2.03;;
3867;SDS011;1949;48.152;11.528;2024-01-06T10:13:39;5.33;;;1.60;;
3867;SDS011;1949;48.152;11.528;2024-01-06T10:16:05;5.40;;;2.60;;
3867;SDS011;1949;48.152;11.528;2024-01-06T10:18:32;5.23;;;2.17;;
3867;SDS011;1949;48.152;11.528;2024-01-06T10:21:04;3.60;;;1.83;;
3867;SDS011;1949;48.152;11.528;2024-01-06T10:23:31;2.63;;;1.80;;
3867;SDS011;1949;48.152;11.528;2024-01-06T10:25:58;6.80;;;1.87;;
3867;SDS011;1949;48.152;11.528;2024-01-06T10:28:24;6.20;;;2.00;;
3867;SDS011;1949;48.152;11.528;2024-01-06T10:30:54;3.40;;;2.40;;
3867;SDS011;1949;48.152;11.528;2024-01-06T10:33:21;3.27;;;2.30;;
3867;SDS011;1949;48.152;11.528;2024-01-06T10:35:48;8.20;;;3.20;;
3867;SDS011;1949;48.152;11.528;2024-01-06T10:38:14;3.00;;;1.93;;
3867;SDS011;1949;48.152;11.528;2024-01-06T10:40:56;5.87;;;2.33;;
3867;SDS011;1949;48.152;11.528;2024-01-06T10:43:24;6.87;;;3.17;;
3867;SDS011;1949;48.152;11.528;2024-01-06T10:45:53;3.60;;;2.13;;
3867;SDS011;1949;48.152;11.528;2024-01-06T10:48:24;4.80;;;2.43;;
3867;SDS011;1949;48.152;11.528;2024-01-06T10:50:50;4.80;;;2.37;;
3867;SDS011;1949;48.152;11.528;2024-01-06T10:53:18;4.80;;;2.50;;
3867;SDS011;1949;48.152;11.528;2024-01-06T10:55:48;9.70;;;2.80;;
3867;SDS011;1949;48.152;11.528;2024-01-06T10:58:21;3.00;;;2.17;;
3867;SDS011;1949;48.152;11.528;2024-01-06T11:00:47;4.67;;;1.90;;
3867;SDS011;1949;48.152;11.528;2024-01-06T11:03:13;6.63;;;2.30;;
3867;SDS011;1949;48.152;11.528;2024-01-06T11:05:41;2.97;;;1.83;;
3867;SDS011;1949;48.152;11.528;2024-01-06T11:08:08;4.07;;;2.00;;
3867;SDS011;1949;48.152;11.528;2024-01-06T11:10:35;6.50;;;2.63;;
3867;SDS011;1949;48.152;11.528;2024-01-06T11:13:09;4.90;;;1.97;;
3867;SDS011;1949;48.152;11.528;2024-01-06T11:15:42;7.50;;;2.27;;
3867;SDS011;1949;48.152;11.528;2024-01-06T11:18:31;2.03;;;1.80;;
3867;SDS011;1949;48.152;11.528;2024-01-06T11:24:33;3.30;;;2.20;;
3867;SDS011;1949;48.152;11.528;2024-01-06T11:26:49;2.50;;;1.93;;
3867;SDS011;1949;48.152;11.528;2024-01-06T11:29:16;5.73;;;2.97;;
3867;SDS011;1949;48.152;11.528;2024-01-06T11:31:48;4.70;;;2.20;;
3867;SDS011;1949;48.152;11.528;2024-01-06T11:34:50;4.13;;;2.63;;
3867;SDS011;1949;48.152;11.528;2024-01-06T11:45:27;3.23;;;2.47;;
3867;SDS011;1949;48.152;11.528;2024-01-06T11:47:56;2.47;;;2.17;;
3867;SDS011;1949;48.152;11.528;2024-01-06T11:50:24;4.23;;;2.13;;
3867;SDS011;1949;48.152;11.528;2024-01-06T11:52:51;4.50;;;2.33;;
3867;SDS011;1949;48.152;11.528;2024-01-06T11:55:18;6.33;;;2.17;;
3867;SDS011;1949;48.152;11.528;2024-01-06T11:57:44;4.57;;;2.77;;
3867;SDS011;1949;48.152;11.528;2024-01-06T12:00:11;12.40;;;2.87;;
3867;SDS011;1949;48.152;11.528;2024-01-06T12:02:40;7.23;;;2.40;;
3867;SDS011;1949;48.152;11.528;2024-01-06T12:05:12;7.97;;;2.43;;
3867;SDS011;1949;48.152;11.528;2024-01-06T12:07:43;3.40;;;2.50;;
3867;SDS011;1949;48.152;11.528;2024-01-06T12:10:19;6.30;;;2.67;;
3867;SDS011;1949;48.152;11.528;2024-01-06T12:12:55;4.00;;;2.33;;
3867;SDS011;1949;48.152;11.528;2024-01-06T12:15:27;6.20;;;3.67;;
3867;SDS011;1949;48.152;11.528;2024-01-06T12:17:56;4.00;;;2.80;;
3867;SDS011;1949;48.152;11.528;2024-01-06T12:20:22;4.87;;;2.90;;
3867;SDS011;1949;48.152;11.528;2024-01-06T12:22:50;6.10;;;2.97;;
3867;SDS011;1949;48.152;11.528;2024-01-06T12:25:25;9.17;;;4.73;;
3867;SDS011;1949;48.152;11.528;2024-01-06T12:27:53;12.97;;;4.80;;
3867;SDS011;1949;48.152;11.528;2024-01-06T12:30:20;11.67;;;4.10;;
3867;SDS011;1949;48.152;11.528;2024-01-06T12:32:49;5.20;;;2.80;;
3867;SDS011;1949;48.152;11.528;2024-01-06T12:35:18;8.43;;;4.13;;
3867;SDS011;1949;48.152;11.528;2024-01-06T12:37:51;12.17;;;5.57;;
3867;SDS011;1949;48.152;11.528;2024-01-06T12:40:18;22.13;;;9.00;;
3867;SDS011;1949;48.152;11.528;2024-01-06T12:42:45;12.43;;;5.60;;
3867;SDS011;1949;48.152;11.528;2024-01-06T12:45:11;9.57;;;4.67;;
3867;SDS011;1949;48.152;11.528;2024-01-06T12:47:38;17.87;;;8.47;;
3867;SDS011;1949;48.152;11.528;2024-01-06T12:50:04;10.33;;;5.10;;
3867;SDS011;1949;48.152;11.528;2024-01-06T12:52:31;13.57;;;3.57;;
3867;SDS011;1949;48.152;11.528;2024-01-06T12:54:58;19.13;;;7.50;;
3867;SDS011;1949;48.152;11.528;2024-01-06T12:57:26;19.53;;;6.17;;
3867;SDS011;1949;48.152;11.528;2024-01-06T12:59:52;10.00;;;3.70;;
3867;SDS011;1949;48.152;11.528;2024-01-06T13:02:19;6.10;;;3.30;;
3867;SDS011;1949;48.152;11.528;2024-01-06T13:04:46;5.77;;;2.40;;
3867;SDS011;1949;48.152;11.528;2024-01-06T13:07:12;5.90;;;2.93;;
3867;SDS011;1949;48.152;11.528;2024-01-06T13:09:38;11.30;;;4.67;;
3867;SDS011;1949;48.152;11.528;2024-01-06T13:12:06;7.47;;;3.47;;
3867;SDS011;1949;48.152;11.528;2024-01-06T13:14:32;7.50;;;2.60;;
3867;SDS011;1949;48.152;11.528;2024-01-06T13:19:32;8.57;;;3.47;;
3867;SDS011;1949;48.152;11.528;2024-01-06T13:22:01;4.83;;;2.67;;
3867;SDS011;1949;48.152;11.528;2024-01-06T13:24:27;6.30;;;3.30;;
3867;SDS011;1949;48.152;11.528;2024-01-06T13:26:53;6.40;;;2.40;;
3867;SDS011;1949;48.152;11.528;2024-01-06T13:29:19;4.83;;;3.00;;
3867;SDS011;1949;48.152;11.528;2024-01-06T13:31:44;2.40;;;2.10;;
3867;SDS011;1949;48.152;11.528;2024-01-06T13:34:10;2.70;;;2.10;;
3867;SDS011;1949;48.152;11.528;2024-01-06T13:36:36;3.87;;;2.60;;
3867;SDS011;1949;48.152;11.528;2024-01-06T13:39:03;7.83;;;4.40;;
3867;SDS011;1949;48.152;11.528;2024-01-06T13:41:29;7.93;;;3.70;;
3867;SDS011;1949;48.152;11.528;2024-01-06T13:43:56;12.17;;;3.90;;
3867;SDS011;1949;48.152;11.528;2024-01-06T13:46:22;6.60;;;3.30;;
3867;SDS011;1949;48.152;11.528;2024-01-06T13:48:47;12.63;;;5.60;;
3867;SDS011;1949;48.152;11.528;2024-01-06T13:51:15;8.40;;;4.10;;
3867;SDS011;1949;48.152;11.528;2024-01-06T13:53:41;9.20;;;4.00;;
3867;SDS011;1949;48.152;11.528;2024-01-06T13:56:07;7.13;;;2.40;;
3867;SDS011;1949;48.152;11.528;2024-01-06T13:58:35;9.03;;;4.87;;
3867;SDS011;1949;48.152;11.528;2024-01-06T14:01:02;8.30;;;3.50;;
3867;SDS011;1949;48.152;11.528;2024-01-06T14:03:28;7.27;;;3.70;;
3867;SDS011;1949;48.152;11.528;2024-01-06T14:05:55;11.20;;;3.40;;
3867;SDS011;1949;48.152;11.528;2024-01-06T14:08:20;4.17;;;2.20;;
3867;SDS011;1949;48.152;11.528;2024-01-06T14:10:46;5.47;;;2.73;;
3867;SDS011;1949;48.152;11.528;2024-01-06T14:13:12;3.30;;;2.33;;
3867;SDS011;1949;48.152;11.528;2024-01-06T14:15:38;4.40;;;2.57;;
3867;SDS011;1949;48.152;11.528;2024-01-06T14:18:05;4.67;;;2.30;;
3867;SDS011;1949;48.152;11.528;2024-01-06T14:20:31;5.87;;;2.87;;
3867;SDS011;1949;48.152;11.528;2024-01-06T14:23:02;4.00;;;2.40;;
3867;SDS011;1949;48.152;11.528;2024-01-06T14:25:29;6.90;;;3.00;;
3867;SDS011;1949;48.152;11.528;2024-01-06T14:27:54;10.93;;;2.87;;
3867;SDS011;1949;48.152;11.528;2024-01-06T14:30:20;3.90;;;2.87;;
3867;SDS011;1949;48.152;11.528;2024-01-06T14:32:46;5.70;;;2.80;;
3867;SDS011;1949;48.152;11.528;2024-01-06T14:35:12;6.40;;;2.43;;
3867;SDS011;1949;48.152;11.528;2024-01-06T14:37:39;3.93;;;2.43;;
3867;SDS011;1949;48.152;11.528;2024-01-06T14:40:11;3.47;;;2.73;;
3867;SDS011;1949;48.152;11.528;2024-01-06T14:42:38;4.07;;;2.97;;
3867;SDS011;1949;48.152;11.528;2024-01-06T14:45:05;6.77;;;2.80;;
3867;SDS011;1949;48.152;11.528;2024-01-06T14:47:33;4.17;;;2.50;;
3867;SDS011;1949;48.152;11.528;2024-01-06T14:50:00;5.67;;;2.77;;
3867;SDS011;1949;48.152;11.528;2024-01-06T14:52:25;2.27;;;2.03;;
3867;SDS011;1949;48.152;11.528;2024-01-06T14:54:54;8.10;;;3.00;;
3867;SDS011;1949;48.152;11.528;2024-01-06T14:57:20;4.13;;;2.70;;
3867;SDS011;1949;48.152;11.528;2024-01-06T14:59:46;5.83;;;3.57;;
3867;SDS011;1949;48.152;11.528;2024-01-06T15:02:12;4.00;;;2.50;;
3867;SDS011;1949;48.152;11.528;2024-01-06T15:04:40;9.30;;;2.97;;
3867;SDS011;1949;48.152;11.528;2024-01-06T15:07:07;5.03;;;3.00;;
3867;SDS011;1949;48.152;11.528;2024-01-06T15:09:37;8.60;;;2.70;;
3867;SDS011;1949;48.152;11.528;2024-01-06T15:12:06;7.90;;;3.90;;
3867;SDS011;1949;48.152;11.528;2024-01-06T15:14:31;3.50;;;2.33;;
3867;SDS011;1949;48.152;11.528;2024-01-06T15:16:58;5.73;;;2.40;;
3867;SDS011;1949;48.152;11.528;2024-01-06T15:19:24;5.23;;;2.80;;
3867;SDS011;1949;48.152;11.528;2024-01-06T15:21:55;2.10;;;1.87;;
3867;SDS011;1949;48.152;11.528;2024-01-06T15:24:23;3.07;;;2.10;;